Time;durP1;ratioP1;P1;durP2;ratioP2;P2;SDS_P1;SDS_P2;PMS_P1;PMS_P2;Temp;Humidity;BMP_temperature;BMP_pressure;BME280_temperature;BME280_humidity;BME280_pressure;Samples;Min_cycle;Max_cycle;Signal;HPM_P1;HPM_P2
2023/04/30 00:02:14;;;;;;;26.60;16.58;;;;;;;14.15;70.74;100187.84;5110427;28;20027;-61
2023/04/30 00:04:40;;;;;;;23.52;16.42;;;;;;;14.17;71.21;100187.69;5108728;28;20023;-62
2023/04/30 00:07:05;;;;;;;25.50;16.25;;;;;;;14.17;71.13;100187.69;5108838;28;20019;-60
2023/04/30 00:09:31;;;;;;;34.05;19.30;;;;;;;14.15;70.57;100182.44;5110045;28;20032;-61
2023/04/30 00:11:56;;;;;;;31.10;18.63;;;;;;;14.17;70.79;100191.22;5109876;28;20464;-60
2023/04/30 00:14:21;;;;;;;28.45;18.10;;;;;;;14.16;71.65;100186.00;5109747;28;20035;-61
2023/04/30 00:16:47;;;;;;;29.80;19.42;;;;;;;14.04;71.50;100171.94;5109917;28;20019;-61
2023/04/30 00:19:12;;;;;;;33.05;19.70;;;;;;;14.02;71.77;100170.41;5109654;28;20027;-60
2023/04/30 00:21:38;;;;;;;33.95;19.38;;;;;;;14.06;72.03;100183.41;5109889;28;20459;-60
2023/04/30 00:24:04;;;;;;;28.80;18.70;;;;;;;14.03;71.95;100181.06;5110462;28;20422;-60
2023/04/30 00:26:29;;;;;;;30.00;18.60;;;;;;;13.98;71.78;100167.19;5109790;28;20035;-61
2023/04/30 00:28:54;;;;;;;26.60;17.63;;;;;;;14.02;71.89;100181.22;5108238;28;20062;-60
2023/04/30 00:31:20;;;;;;;27.70;16.75;;;;;;;13.96;71.62;100173.75;5109824;28;20089;-60
2023/04/30 00:33:45;;;;;;;28.48;18.02;;;;;;;13.94;71.79;100165.81;5108895;28;20015;-60
2023/04/30 00:36:11;;;;;;;25.67;17.10;;;;;;;14.01;72.20;100174.09;5108027;28;20035;-61
2023/04/30 00:38:36;;;;;;;32.25;17.10;;;;;;;13.96;72.62;100171.88;5109282;28;20545;-61
2023/04/30 00:41:02;;;;;;;24.92;17.08;;;;;;;13.98;72.76;100175.28;5108130;28;20031;-60
2023/04/30 00:43:27;;;;;;;28.83;16.90;;;;;;;13.92;73.13;100165.13;5109181;28;20031;-60
2023/04/30 00:45:53;;;;;;;25.42;16.05;;;;;;;13.91;72.88;100166.13;5109237;28;20036;-61
2023/04/30 00:48:18;;;;;;;25.67;16.80;;;;;;;13.93;73.24;100174.91;5109409;28;20106;-61
2023/04/30 00:50:44;;;;;;;27.98;16.55;;;;;;;13.91;73.82;100173.38;5107707;28;20035;-60
2023/04/30 00:53:10;;;;;;;23.50;16.63;;;;;;;13.88;74.22;100169.16;5107804;28;20042;-60
2023/04/30 00:55:36;;;;;;;23.60;15.88;;;;;;;13.85;73.70;100169.47;5108919;28;20129;-60
2023/04/30 00:58:02;;;;;;;27.02;15.85;;;;;;;13.75;74.88;100155.25;5109150;28;20032;-61
2023/04/30 01:00:28;;;;;;;29.40;16.50;;;;;;;13.84;74.63;100169.63;5109017;28;20027;-61
2023/04/30 01:02:55;;;;;;;22.27;14.88;;;;;;;13.81;75.12;100165.41;5107324;28;20047;-61
2023/04/30 01:05:21;;;;;;;32.13;16.15;;;;;;;13.74;75.23;100167.06;5108476;28;20023;-61
2023/04/30 01:07:48;;;;;;;21.90;15.60;;;;;;;13.63;75.51;100154.66;5107909;28;20373;-60
2023/04/30 01:10:14;;;;;;;23.83;15.25;;;;;;;13.73;76.13;100165.34;5108627;28;20053;-60
2023/04/30 01:12:57;;;;;;;23.50;15.82;;;;;;;13.70;75.87;100163.81;5106410;28;20027;-62
2023/04/30 01:15:53;;;;;;;23.55;16.48;;;;;;;13.68;75.76;100167.69;5105978;28;20035;-61
2023/04/30 01:18:27;;;;;;;26.45;16.05;;;;;;;13.69;76.21;100166.66;5133311;27;20037;-61
2023/04/30 01:21:00;;;;;;;25.83;16.33;;;;;;;13.57;76.55;100147.22;5108222;28;20019;-61
2023/04/30 01:23:34;;;;;;;19.10;15.68;;;;;;;13.64;76.41;100163.59;5107974;28;20092;-61
2023/04/30 01:26:41;;;;;;;26.48;16.65;;;;;;;13.49;76.29;100140.94;5105390;28;20043;-61
2023/04/30 01:29:07;;;;;;;23.00;15.23;;;;;;;13.59;76.64;100168.63;5107126;28;20030;-61
2023/04/30 01:31:33;;;;;;;20.85;16.20;;;;;;;13.58;76.55;100164.25;5107863;28;20027;-60
2023/04/30 01:33:58;;;;;;;24.33;16.05;;;;;;;13.57;76.71;100165.22;5107128;28;20380;-67
2023/04/30 01:36:41;;;;;;;24.60;15.82;;;;;;;13.56;76.89;100172.47;5107265;28;20525;-66
2023/04/30 01:39:29;;;;;;;22.40;15.95;;;;;;;13.56;77.48;100172.47;5105892;28;20043;-67
2023/04/30 01:42:10;;;;;;;22.02;15.68;;;;;;;13.43;78.30;100153.19;5106345;28;20027;-67
2023/04/30 01:44:44;;;;;;;26.33;15.40;;;;;;;13.51;78.89;100182.88;5106044;28;20032;-67
2023/04/30 01:47:25;;;;;;;28.88;15.90;;;;;;;13.49;79.23;100186.72;5107821;28;20130;-67
2023/04/30 01:50:02;;;;;;;25.83;15.98;;;;;;;13.42;79.07;100175.72;5107800;28;20138;-67
2023/04/30 01:52:37;;;;;;;22.95;15.18;;;;;;;13.43;79.01;100180.13;5105354;28;20038;-67
2023/04/30 01:55:12;;;;;;;19.88;15.15;;;;;;;13.41;78.86;100182.13;5108229;28;20400;-67
2023/04/30 01:57:44;;;;;;;20.50;14.77;;;;;;;13.37;79.72;100190.66;5106930;28;20466;-67
2023/04/30 02:00:10;;;;;;;23.85;14.88;;;;;;;13.32;80.43;100179.53;5108269;28;20039;-67
2023/04/30 02:02:36;;;;;;;20.48;14.82;;;;;;;13.30;80.50;100184.22;5106942;28;20369;-67
2023/04/30 02:05:02;;;;;;;24.52;15.35;;;;;;;13.26;80.49;100190.91;5108530;28;20042;-67
2023/04/30 02:07:40;;;;;;;19.85;15.02;;;;;;;13.22;79.97;100176.91;5107020;28;20058;-66
2023/04/30 02:10:07;;;;;;;21.50;14.18;;;;;;;13.21;80.76;100193.22;5108343;28;20020;-67
2023/04/30 02:12:32;;;;;;;18.40;14.05;;;;;;;13.19;80.29;100187.97;5107051;28;20043;-60
2023/04/30 02:14:58;;;;;;;22.25;14.18;;;;;;;13.21;80.08;100190.50;5106647;28;20038;-62
2023/04/30 02:17:23;;;;;;;18.38;12.68;;;;;;;13.12;79.68;100183.34;5108395;28;20795;-61
2023/04/30 02:19:49;;;;;;;21.02;13.60;;;;;;;13.18;79.85;100194.38;5108204;28;20011;-60
2023/04/30 02:22:14;;;;;;;23.10;14.52;;;;;;;13.16;79.96;100198.22;5108182;28;20027;-60
2023/04/30 02:24:40;;;;;;;17.13;13.30;;;;;;;13.12;80.07;100188.75;5107887;28;20050;-60
2023/04/30 02:27:05;;;;;;;16.48;12.48;;;;;;;13.10;80.08;100209.63;5110037;28;20038;-60
2023/04/30 02:29:31;;;;;;;17.90;14.07;;;;;;;12.98;80.10;100195.50;5111771;28;20164;-61
2023/04/30 02:31:58;;;;;;;16.98;12.82;;;;;;;12.99;80.12;100197.22;5112026;28;20216;-61
2023/04/30 02:34:24;;;;;;;20.58;13.18;;;;;;;12.95;80.21;100205.72;5112020;27;20024;-60
2023/04/30 02:36:50;;;;;;;14.13;12.13;;;;;;;12.93;80.35;100218.50;5111470;28;20034;-59
2023/04/30 02:39:15;;;;;;;18.65;12.27;;;;;;;12.85;80.19;100211.16;5111714;28;20048;-61
2023/04/30 02:41:41;;;;;;;21.40;13.27;;;;;;;12.78;80.83;100210.09;5111662;28;20027;-60
2023/04/30 02:44:06;;;;;;;21.02;13.60;;;;;;;12.70;81.50;100217.19;5111636;28;20084;-60
2023/04/30 02:46:32;;;;;;;17.73;13.25;;;;;;;12.62;81.35;100209.91;5111740;28;20028;-61
2023/04/30 02:48:57;;;;;;;16.08;12.63;;;;;;;12.57;81.76;100204.09;5111670;28;20047;-61
2023/04/30 02:51:22;;;;;;;17.02;12.35;;;;;;;12.40;81.34;100193.28;5111686;28;20050;-61
2023/04/30 02:53:48;;;;;;;22.25;12.13;;;;;;;12.45;81.64;100207.16;5111477;28;20043;-60
2023/04/30 02:56:14;;;;;;;21.83;12.88;;;;;;;12.38;81.27;100203.38;5111639;28;20027;-61
2023/04/30 02:58:39;;;;;;;17.38;11.75;;;;;;;12.22;81.73;100189.72;5110802;28;20023;-61
2023/04/30 03:01:05;;;;;;;23.83;11.95;;;;;;;12.27;81.10;100209.78;5111757;28;20027;-61
2023/04/30 03:03:30;;;;;;;14.10;10.98;;;;;;;12.23;81.26;100210.22;5111527;28;20032;-61
2023/04/30 03:05:58;;;;;;;13.20;10.98;;;;;;;12.10;81.27;100199.81;5111119;28;20032;-60
2023/04/30 03:08:24;;;;;;;13.65;11.95;;;;;;;12.07;82.02;100210.00;5110228;28;20472;-61
2023/04/30 03:10:49;;;;;;;17.00;11.15;;;;;;;12.04;82.52;100212.97;5110092;28;20031;-60
2023/04/30 03:13:15;;;;;;;16.33;11.55;;;;;;;11.96;82.54;100216.41;5111035;28;20101;-60
2023/04/30 03:15:40;;;;;;;14.00;10.98;;;;;;;11.88;83.00;100208.22;5110951;28;20077;-61
2023/04/30 03:18:05;;;;;;;19.33;12.63;;;;;;;11.85;82.62;100207.66;5110613;28;20027;-60
2023/04/30 03:20:31;;;;;;;18.67;11.02;;;;;;;11.78;82.39;100210.09;5109616;28;20031;-60
2023/04/30 03:22:56;;;;;;;15.10;10.95;;;;;;;11.74;83.01;100211.38;5111119;28;20275;-61
2023/04/30 03:25:22;;;;;;;17.30;11.80;;;;;;;11.57;83.77;100199.50;5111046;28;20027;-60
2023/04/30 03:27:47;;;;;;;15.45;10.93;;;;;;;11.65;83.22;100225.69;5110913;28;20057;-60
2023/04/30 03:30:13;;;;;;;15.68;12.07;;;;;;;11.46;84.22;100202.34;5110920;28;20106;-61
2023/04/30 03:32:38;;;;;;;15.63;10.90;;;;;;;11.46;84.31;100213.09;5110543;28;20054;-60
2023/04/30 03:35:04;;;;;;;17.75;13.25;;;;;;;11.43;84.53;100208.00;5110835;28;20613;-60
2023/04/30 03:37:30;;;;;;;14.85;11.18;;;;;;;11.50;84.82;100230.59;5109362;28;20062;-60
2023/04/30 03:39:56;;;;;;;17.02;11.32;;;;;;;11.44;84.45;100225.81;5109210;28;20555;-61
2023/04/30 03:42:21;;;;;;;17.20;11.93;;;;;;;11.36;85.35;100219.44;5110689;28;20047;-61
2023/04/30 03:44:47;;;;;;;18.60;12.02;;;;;;;11.43;85.92;100234.00;5110374;28;20036;-60
2023/04/30 03:47:12;;;;;;;17.80;11.82;;;;;;;11.34;85.79;100229.47;5109049;28;20026;-61
2023/04/30 03:49:38;;;;;;;17.27;12.52;;;;;;;11.33;86.43;100231.34;5110450;28;20027;-60
2023/04/30 03:52:04;;;;;;;17.05;11.75;;;;;;;11.36;86.61;100233.69;5110337;28;20367;-60
2023/04/30 03:54:30;;;;;;;15.23;12.27;;;;;;;11.36;87.29;100240.94;5110612;28;20387;-60
2023/04/30 03:56:55;;;;;;;17.35;12.23;;;;;;;11.36;87.23;100235.56;5110197;28;20030;-60
2023/04/30 03:59:21;;;;;;;17.45;12.38;;;;;;;11.31;87.42;100221.69;5110342;28;20437;-60
2023/04/30 04:01:46;;;;;;;17.02;11.95;;;;;;;11.37;87.60;100235.41;5109383;28;20020;-61
2023/04/30 04:04:12;;;;;;;16.83;11.95;;;;;;;11.40;87.60;100245.03;5109644;28;20054;-61
2023/04/30 04:06:38;;;;;;;16.17;13.13;;;;;;;11.22;88.09;100215.34;5106624;28;20023;-60
2023/04/30 04:09:04;;;;;;;16.30;12.70;;;;;;;11.39;87.50;100246.84;5109444;28;20399;-60
2023/04/30 04:11:29;;;;;;;21.73;13.10;;;;;;;11.47;88.00;100262.25;5109701;28;20027;-61
2023/04/30 04:13:54;;;;;;;20.98;13.48;;;;;;;11.44;88.35;100254.47;5109221;28;20016;-60
2023/04/30 04:16:21;;;;;;;17.17;12.88;;;;;;;11.52;88.29;100265.38;5109213;28;20110;-60
2023/04/30 04:18:46;;;;;;;15.18;12.52;;;;;;;11.46;87.78;100242.63;5108052;28;20020;-61
2023/04/30 04:21:11;;;;;;;15.88;12.52;;;;;;;11.66;88.03;100266.81;5108894;28;20805;-60
2023/04/30 04:23:37;;;;;;;18.42;13.27;;;;;;;11.63;87.72;100251.81;5108944;28;20042;-60
2023/04/30 04:26:02;;;;;;;21.67;12.77;;;;;;;11.83;86.86;100260.72;5107879;28;20135;-61
2023/04/30 04:28:28;;;;;;;14.57;12.23;;;;;;;11.98;85.55;100268.19;5107544;28;20032;-61
2023/04/30 04:30:54;;;;;;;17.58;12.35;;;;;;;11.99;85.84;100259.09;5105837;27;20027;-60
2023/04/30 04:33:20;;;;;;;32.95;27.95;;;;;;;12.18;85.38;100269.81;5107978;28;20369;-60
2023/04/30 04:35:45;;;;;;;27.27;21.55;;;;;;;12.18;84.33;100259.06;5108788;28;20019;-60
2023/04/30 04:38:11;;;;;;;24.42;19.27;;;;;;;12.36;83.47;100269.91;5109661;28;20046;-60
2023/04/30 04:40:37;;;;;;;21.05;15.10;;;;;;;12.49;82.29;100276.66;5110134;28;20043;-60
2023/04/30 04:43:02;;;;;;;18.92;14.13;;;;;;;12.69;82.07;100283.66;5110214;28;20024;-61
2023/04/30 04:45:28;;;;;;;15.15;12.20;;;;;;;12.78;81.86;100279.22;5110119;28;20039;-60
2023/04/30 04:47:54;;;;;;;16.23;12.18;;;;;;;13.06;79.62;100286.31;5108621;28;20062;-60
2023/04/30 04:50:20;;;;;;;15.13;12.95;;;;;;;13.19;78.78;100287.63;5109431;28;20024;-61
2023/04/30 04:52:45;;;;;;;16.00;12.23;;;;;;;13.30;78.47;100297.34;5109854;27;20126;-60
2023/04/30 04:55:11;;;;;;;22.10;13.73;;;;;;;13.45;78.24;100293.13;5107873;28;20040;-60
2023/04/30 04:57:36;;;;;;;17.90;12.77;;;;;;;13.56;78.38;100274.03;5110434;28;20023;-60
2023/04/30 05:00:05;;;;;;;16.35;12.63;;;;;;;13.73;77.15;100278.53;5110238;28;20038;-60
2023/04/30 05:02:30;;;;;;;17.67;13.55;;;;;;;13.91;77.09;100294.69;5110590;28;20039;-61
2023/04/30 05:04:56;;;;;;;16.02;12.68;;;;;;;13.95;75.84;100287.97;5109588;28;20405;-61
2023/04/30 05:07:21;;;;;;;18.80;13.00;;;;;;;14.17;74.43;100291.03;5108412;28;20028;-60
2023/04/30 05:09:47;;;;;;;17.73;12.95;;;;;;;14.15;75.15;100289.50;5108602;28;20027;-61
2023/04/30 05:12:13;;;;;;;17.25;12.23;;;;;;;14.20;75.30;100295.25;5104505;28;20076;-60
2023/04/30 05:14:39;;;;;;;23.88;13.23;;;;;;;14.08;75.73;100289.28;5108887;28;20504;-60
2023/04/30 05:17:05;;;;;;;17.27;13.15;;;;;;;14.19;76.08;100305.19;5109874;28;20043;-60
2023/04/30 05:19:31;;;;;;;16.75;13.13;;;;;;;14.21;76.12;100299.63;5109741;28;20032;-61
2023/04/30 05:21:56;;;;;;;22.60;13.07;;;;;;;14.19;76.49;100274.69;5109905;28;20023;-61
2023/04/30 05:24:22;;;;;;;22.15;12.95;;;;;;;14.32;76.18;100297.56;5109933;28;20039;-61
2023/04/30 05:26:48;;;;;;;20.48;12.70;;;;;;;14.30;77.08;100296.88;5109726;28;20028;-61
2023/04/30 05:29:13;;;;;;;16.23;12.50;;;;;;;14.40;77.27;100297.63;5109815;28;20382;-61
2023/04/30 05:31:39;;;;;;;15.65;11.50;;;;;;;14.38;77.99;100290.69;5109485;28;20035;-60
2023/04/30 05:34:04;;;;;;;20.00;11.93;;;;;;;14.59;77.08;100308.19;5109873;28;20020;-65
2023/04/30 05:36:31;;;;;;;16.58;11.38;;;;;;;14.53;76.63;100281.84;5108585;28;20072;-67
2023/04/30 05:38:56;;;;;;;16.80;11.60;;;;;;;14.68;76.38;100292.88;5109401;28;20044;-67
2023/04/30 05:41:22;;;;;;;19.33;12.38;;;;;;;14.86;74.60;100302.59;5108129;28;20093;-66
2023/04/30 05:43:47;;;;;;;16.50;11.20;;;;;;;14.86;73.92;100290.91;5109264;28;20036;-66
2023/04/30 05:46:13;;;;;;;15.35;11.43;;;;;;;15.02;73.46;100307.19;5109824;28;20048;-67
2023/04/30 05:48:38;;;;;;;14.07;10.95;;;;;;;14.98;72.42;100279.69;5109559;28;20057;-66
2023/04/30 05:51:07;;;;;;;16.23;11.15;;;;;;;15.10;70.80;100283.78;5109665;28;20033;-66
2023/04/30 05:53:32;;;;;;;14.20;10.15;;;;;;;15.27;70.46;100307.13;5109803;28;20139;-66
2023/04/30 05:55:58;;;;;;;14.68;11.60;;;;;;;15.31;70.29;100307.63;5109345;28;20135;-66
2023/04/30 05:58:24;;;;;;;13.73;11.13;;;;;;;15.46;69.47;100309.56;5109425;28;20502;-66
2023/04/30 06:00:51;;;;;;;16.75;12.32;;;;;;;15.84;67.03;100317.03;5108036;28;20020;-67
2023/04/30 06:03:23;;;;;;;18.10;13.05;;;;;;;15.89;67.26;100313.81;5110034;28;20035;-66
2023/04/30 06:05:48;;;;;;;21.08;13.50;;;;;;;16.14;65.92;100317.38;5110038;28;20031;-66
2023/04/30 06:08:14;;;;;;;16.98;12.15;;;;;;;16.05;66.55;100302.19;5113395;28;20036;-66
2023/04/30 06:10:39;;;;;;;16.90;12.30;;;;;;;16.25;65.83;100327.88;5105591;27;20016;-67
2023/04/30 06:13:05;;;;;;;15.23;11.95;;;;;;;16.12;66.84;100319.44;5103707;28;20111;-67
2023/04/30 06:15:31;;;;;;;18.90;13.65;;;;;;;16.23;67.21;100319.06;5099642;28;20530;-67
2023/04/30 06:17:57;;;;;;;17.40;12.73;;;;;;;16.26;68.03;100321.44;5093424;27;20032;-66
2023/04/30 06:20:22;;;;;;;15.25;12.55;;;;;;;16.37;67.95;100318.34;5103706;28;20115;-67
2023/04/30 06:22:48;;;;;;;18.13;13.48;;;;;;;16.34;68.02;100307.91;5112307;28;20118;-67
2023/04/30 06:25:13;;;;;;;15.27;11.70;;;;;;;16.34;68.63;100316.03;5113046;28;20031;-67
2023/04/30 06:27:39;;;;;;;17.40;12.88;;;;;;;16.50;69.75;100321.41;5112430;28;20047;-67
2023/04/30 06:30:05;;;;;;;18.77;12.73;;;;;;;16.92;67.21;100316.56;5113004;27;20088;-67
2023/04/30 06:32:30;;;;;;;16.52;13.00;;;;;;;17.02;66.54;100306.34;5112112;28;20027;-67
2023/04/30 06:34:56;;;;;;;14.45;11.25;;;;;;;17.12;67.21;100320.56;5104464;28;20111;-67
2023/04/30 06:37:21;;;;;;;15.10;12.70;;;;;;;17.32;66.03;100319.09;5112489;28;20015;-67
2023/04/30 06:39:47;;;;;;;13.57;11.45;;;;;;;17.35;65.51;100316.84;5112183;28;20027;-67
2023/04/30 06:42:13;;;;;;;14.23;11.43;;;;;;;17.32;65.09;100316.38;5112452;28;20071;-67
2023/04/30 06:44:38;;;;;;;14.60;10.32;;;;;;;17.35;65.25;100318.75;5110843;28;20468;-67
2023/04/30 06:47:04;;;;;;;17.08;11.88;;;;;;;17.43;65.07;100319.56;5110628;28;20031;-67
2023/04/30 06:49:29;;;;;;;13.90;10.25;;;;;;;17.53;65.88;100322.03;5111613;28;20084;-67
2023/04/30 06:51:57;;;;;;;13.18;10.27;;;;;;;17.76;65.77;100317.47;5098591;28;20020;-66
2023/04/30 06:54:23;;;;;;;15.23;11.27;;;;;;;18.30;63.38;100316.34;5109372;28;20361;-67
2023/04/30 06:56:48;;;;;;;13.98;10.10;;;;;;;18.63;62.35;100304.16;5112362;28;20084;-67
2023/04/30 06:59:13;;;;;;;12.32;8.85;;;;;;;18.82;62.69;100308.19;5112169;28;20027;-67
2023/04/30 07:01:39;;;;;;;10.85;9.35;;;;;;;19.04;61.36;100299.09;5111939;28;20023;-67
2023/04/30 07:04:05;;;;;;;10.82;8.13;;;;;;;19.21;60.64;100285.09;5112095;27;20015;-67
2023/04/30 07:06:30;;;;;;;10.40;8.15;;;;;;;19.51;59.23;100302.22;5111644;28;20031;-67
2023/04/30 07:08:58;;;;;;;9.32;8.32;;;;;;;19.73;58.58;100299.31;5111488;28;20027;-67
2023/04/30 07:11:24;;;;;;;11.45;7.90;;;;;;;20.09;57.60;100299.25;5111504;28;20356;-67
2023/04/30 07:13:50;;;;;;;11.65;8.60;;;;;;;20.30;56.26;100301.97;5109436;28;20027;-67
2023/04/30 07:16:15;;;;;;;10.48;8.02;;;;;;;20.56;55.52;100288.53;5109749;28;20024;-67
2023/04/30 07:18:41;;;;;;;10.02;7.53;;;;;;;20.80;54.75;100296.22;5107382;28;20038;-67
2023/04/30 07:21:07;;;;;;;10.35;7.97;;;;;;;21.11;53.50;100293.91;5111925;28;20396;-67
2023/04/30 07:23:33;;;;;;;9.05;7.22;;;;;;;21.13;53.07;100280.06;5111494;28;20027;-67
2023/04/30 07:25:59;;;;;;;10.63;8.27;;;;;;;21.31;52.77;100286.66;5107792;28;20035;-67
2023/04/30 07:28:25;;;;;;;14.45;8.50;;;;;;;21.49;52.41;100308.78;5109963;28;20035;-67
2023/04/30 07:30:51;;;;;;;11.60;8.38;;;;;;;21.48;52.55;100308.97;5111322;28;20031;-67
2023/04/30 07:33:16;;;;;;;12.02;8.25;;;;;;;21.57;52.38;100308.56;5097672;28;20032;-67
2023/04/30 07:35:42;;;;;;;9.68;7.97;;;;;;;21.71;51.81;100304.00;5099314;28;20521;-67
2023/04/30 07:38:07;;;;;;;10.75;8.63;;;;;;;21.82;51.55;100306.13;5099583;28;20687;-66
2023/04/30 07:40:33;;;;;;;9.75;8.13;;;;;;;21.99;51.30;100302.00;5104417;28;20039;-66
2023/04/30 07:42:58;;;;;;;10.75;9.48;;;;;;;22.24;49.90;100297.56;5105319;28;20110;-67
2023/04/30 07:45:23;;;;;;;15.10;8.88;;;;;;;22.25;49.89;100294.63;5100533;28;20028;-67
2023/04/30 07:47:49;;;;;;;14.13;9.05;;;;;;;22.23;49.77;100309.56;5102410;28;20040;-67
2023/04/30 07:50:14;;;;;;;9.75;7.53;;;;;;;22.09;50.05;100311.44;5105712;28;20016;-67
2023/04/30 07:52:40;;;;;;;11.45;8.98;;;;;;;22.10;50.08;100294.00;5095116;28;20062;-67
2023/04/30 07:55:06;;;;;;;10.90;9.13;;;;;;;22.11;50.54;100301.16;5092301;28;21667;-67
2023/04/30 07:57:32;;;;;;;9.65;7.68;;;;;;;22.08;50.73;100290.63;5107625;28;20062;-67
2023/04/30 07:59:57;;;;;;;10.40;9.30;;;;;;;22.29;49.84;100316.91;5107991;28;20561;-67
2023/04/30 08:02:23;;;;;;;9.63;8.38;;;;;;;22.15;50.10;100290.63;5109407;28;20091;-67
2023/04/30 08:04:48;;;;;;;9.35;8.00;;;;;;;22.38;50.00;100301.16;5109959;28;20589;-67
2023/04/30 08:07:16;;;;;;;9.15;8.32;;;;;;;22.50;49.59;100321.38;5109835;28;20039;-67
2023/04/30 08:09:42;;;;;;;12.65;8.07;;;;;;;22.50;49.50;100305.78;5110887;28;20057;-67
2023/04/30 08:12:08;;;;;;;9.30;8.32;;;;;;;22.60;48.72;100314.41;5111264;28;20023;-67
2023/04/30 08:14:34;;;;;;;11.52;8.65;;;;;;;22.48;49.24;100313.34;5110638;28;20513;-67
2023/04/30 08:17:01;;;;;;;9.68;8.48;;;;;;;22.47;48.97;100316.28;5110998;28;20032;-67
2023/04/30 08:19:26;;;;;;;11.25;7.97;;;;;;;22.44;49.14;100312.06;5110953;28;20106;-67
2023/04/30 08:21:52;;;;;;;8.98;8.00;;;;;;;22.46;49.67;100312.69;5110829;28;20164;-67
2023/04/30 08:24:17;;;;;;;9.43;7.65;;;;;;;22.39;49.16;100276.34;5110092;27;20023;-67
2023/04/30 08:26:43;;;;;;;9.80;7.70;;;;;;;22.73;48.81;100305.34;5110665;28;20077;-67
2023/04/30 08:29:08;;;;;;;12.43;8.20;;;;;;;22.94;48.43;100307.81;5110791;28;20028;-67
2023/04/30 08:31:34;;;;;;;9.68;7.70;;;;;;;23.18;47.64;100307.13;5110835;28;20055;-67
2023/04/30 08:34:00;;;;;;;7.25;6.55;;;;;;;23.54;46.18;100304.69;5110588;28;20040;-67
2023/04/30 08:36:26;;;;;;;8.55;6.75;;;;;;;24.14;44.63;100310.44;5110627;28;20030;-67
2023/04/30 08:38:52;;;;;;;7.20;6.00;;;;;;;24.20;44.50;100305.94;5108730;28;20549;-67
2023/04/30 08:41:21;;;;;;;6.88;6.28;;;;;;;25.01;41.87;100292.94;5110248;28;20039;-67
2023/04/30 08:43:51;;;;;;;5.60;5.13;;;;;;;24.98;41.98;100297.00;5110236;28;20422;-67
2023/04/30 08:46:17;;;;;;;7.97;6.57;;;;;;;24.71;42.93;100289.28;5110496;28;20031;-67
2023/04/30 08:48:43;;;;;;;7.13;6.43;;;;;;;24.55;43.45;100287.94;5108822;28;20030;-67
2023/04/30 08:51:10;;;;;;;6.80;5.32;;;;;;;24.53;43.62;100300.19;5110473;28;20036;-67
2023/04/30 08:53:39;;;;;;;8.88;5.38;;;;;;;24.44;43.30;100299.66;5110064;28;20028;-67
2023/04/30 08:56:05;;;;;;;15.60;5.15;;;;;;;24.36;43.43;100295.28;5109865;28;20042;-67
2023/04/30 08:58:31;;;;;;;8.93;6.30;;;;;;;24.58;42.16;100284.75;5110168;28;20059;-67
2023/04/30 09:00:58;;;;;;;5.60;5.10;;;;;;;24.47;43.25;100295.59;5104281;28;20051;-67
2023/04/30 09:03:24;;;;;;;6.25;5.60;;;;;;;24.38;43.13;100293.13;5106640;27;20043;-67
2023/04/30 09:05:50;;;;;;;6.40;3.90;;;;;;;24.44;42.79;100296.91;5105424;28;20015;-67
2023/04/30 09:08:38;;;;;;;5.53;4.85;;;;;;;24.48;42.80;100298.13;5105126;28;20074;-68
2023/04/30 09:11:21;;;;;;;5.50;4.88;;;;;;;24.44;42.24;100291.41;5105418;28;20026;-67
2023/04/30 09:13:51;;;;;;;7.47;4.07;;;;;;;24.88;40.60;100287.59;5103541;28;20036;-67
2023/04/30 09:16:17;;;;;;;4.18;3.42;;;;;;;24.78;39.62;100277.16;5107500;28;20022;-67
2023/04/30 09:18:42;;;;;;;4.93;3.85;;;;;;;24.48;40.76;100287.97;5105897;28;20474;-67
2023/04/30 09:21:08;;;;;;;3.40;3.10;;;;;;;24.17;41.69;100290.78;5106382;28;20094;-67
2023/04/30 09:23:33;;;;;;;5.22;3.88;;;;;;;24.02;42.28;100287.53;5106129;28;20120;-67
2023/04/30 09:26:02;;;;;;;3.42;3.13;;;;;;;24.00;41.33;100289.66;5104881;28;20094;-67
2023/04/30 09:28:28;;;;;;;3.70;3.33;;;;;;;23.98;42.16;100285.44;5104893;28;20549;-69
2023/04/30 09:30:57;;;;;;;5.57;4.22;;;;;;;23.90;43.20;100294.75;5102208;28;20794;-68
2023/04/30 09:33:22;;;;;;;4.55;3.67;;;;;;;23.95;42.42;100280.41;5106298;28;20051;-69
2023/04/30 09:35:48;;;;;;;6.65;4.22;;;;;;;23.65;43.07;100280.19;5108105;28;20038;-69
2023/04/30 09:38:30;;;;;;;4.18;3.78;;;;;;;23.49;42.83;100282.56;5113289;27;20118;-69
2023/04/30 09:41:00;;;;;;;5.07;3.92;;;;;;;23.34;43.34;100282.84;5109309;28;20039;-69
2023/04/30 09:43:27;;;;;;;5.78;3.88;;;;;;;23.22;44.00;100276.38;5111767;27;20020;-69
2023/04/30 09:45:52;;;;;;;7.05;4.20;;;;;;;23.51;42.72;100281.28;5110886;28;20023;-69
2023/04/30 09:48:21;;;;;;;5.20;3.15;;;;;;;23.36;43.68;100264.31;5108309;27;20030;-68
2023/04/30 09:50:48;;;;;;;4.20;3.20;;;;;;;23.37;43.36;100285.16;5094231;28;20140;-68
2023/04/30 09:53:16;;;;;;;4.13;3.28;;;;;;;23.24;43.23;100273.41;5112040;27;20073;-68
2023/04/30 09:55:47;;;;;;;5.72;3.53;;;;;;;23.28;43.18;100271.97;5112739;27;20136;-68
2023/04/30 09:58:13;;;;;;;2.78;2.30;;;;;;;23.16;40.86;100263.56;5114152;27;20676;-69
2023/04/30 10:00:40;;;;;;;2.15;1.95;;;;;;;23.29;40.70;100274.47;5113073;27;20039;-69
2023/04/30 10:03:11;;;;;;;4.72;2.35;;;;;;;23.32;40.84;100265.84;5110882;27;20486;-69
2023/04/30 10:05:40;;;;;;;3.35;2.13;;;;;;;23.29;41.32;100252.56;5112187;28;20047;-69
2023/04/30 10:08:12;;;;;;;2.13;1.90;;;;;;;23.60;40.41;100260.81;5111768;28;20475;-69
2023/04/30 10:10:41;;;;;;;4.03;2.10;;;;;;;23.96;39.68;100266.50;5109676;28;20646;-69
2023/04/30 10:13:12;;;;;;;4.47;2.45;;;;;;;23.98;40.25;100258.03;5112795;27;20087;-69
2023/04/30 10:15:42;;;;;;;2.70;2.42;;;;;;;23.86;40.85;100257.06;5113380;27;20457;-69
2023/04/30 10:18:18;;;;;;;2.60;2.33;;;;;;;23.78;40.57;100257.31;5112403;28;20026;-68
2023/04/30 10:20:47;;;;;;;3.88;2.35;;;;;;;23.78;41.14;100257.31;5111011;27;20078;-69
2023/04/30 10:23:14;;;;;;;4.60;2.10;;;;;;;23.92;38.43;100248.78;5111190;28;20050;-69
2023/04/30 10:25:40;;;;;;;2.95;1.80;;;;;;;24.17;37.72;100248.84;5112654;27;20023;-68
2023/04/30 10:28:08;;;;;;;2.20;2.00;;;;;;;24.06;37.39;100224.91;5111555;27;20020;-69
2023/04/30 10:30:34;;;;;;;4.22;2.05;;;;;;;24.03;38.09;100239.91;5112332;27;20031;-69
2023/04/30 10:33:03;;;;;;;2.28;2.08;;;;;;;23.96;37.64;100252.78;5111306;28;20041;-68
2023/04/30 10:35:36;;;;;;;5.30;2.00;;;;;;;23.87;37.47;100245.91;5112716;27;20660;-68
2023/04/30 10:38:23;;;;;;;1.92;1.83;;;;;;;23.76;38.34;100251.25;5112135;28;20035;-68
2023/04/30 10:40:50;;;;;;;2.00;1.75;;;;;;;23.74;37.79;100240.50;5113905;27;20039;-68
2023/04/30 10:43:20;;;;;;;2.97;1.88;;;;;;;23.95;37.64;100237.41;5113075;28;20042;-67
2023/04/30 10:45:46;;;;;;;3.88;2.40;;;;;;;23.91;38.00;100236.16;5112352;28;20027;-68
2023/04/30 10:48:14;;;;;;;3.30;2.22;;;;;;;23.82;38.37;100242.97;5111576;27;20093;-68
2023/04/30 10:50:44;;;;;;;3.67;2.20;;;;;;;23.62;38.46;100220.34;4753586;28;9999640;-67
2023/04/30 10:53:16;;;;;;;3.75;2.00;;;;;;;23.64;38.50;100220.97;5110992;27;20149;-68
2023/04/30 10:55:52;;;;;;;3.15;2.30;;;;;;;23.61;38.44;100248.81;5102709;28;20035;-67
2023/04/30 10:58:24;;;;;;;2.50;2.30;;;;;;;23.50;39.01;100244.03;5107312;27;20768;-67
2023/04/30 11:01:11;;;;;;;7.10;2.38;;;;;;;23.43;39.48;100245.97;5105969;28;20023;-67
2023/04/30 11:03:41;;;;;;;6.15;2.60;;;;;;;23.31;39.59;100244.97;5106672;27;20070;-67
2023/04/30 11:06:13;;;;;;;3.28;2.45;;;;;;;23.21;39.69;100239.09;5106050;28;20415;-67
2023/04/30 11:08:44;;;;;;;2.63;2.42;;;;;;;23.14;39.55;100231.97;5107061;27;20044;-68
2023/04/30 11:11:10;;;;;;;3.22;2.03;;;;;;;23.25;39.14;100236.81;5106228;28;20023;-67
2023/04/30 11:13:40;;;;;;;1.83;1.58;;;;;;;23.27;39.11;100231.94;5106311;27;20051;-67
2023/04/30 11:16:06;;;;;;;2.92;1.77;;;;;;;23.31;39.52;100239.50;5104727;28;20057;-67